createdAt,value
2019-03-01T00:01:17.832Z,9.17
2019-03-01T00:03:50.002Z,9.21
2019-03-01T00:06:22.566Z,9.14
2019-03-01T00:09:31.841Z,9.10
2019-03-01T00:12:28.667Z,9.12
2019-03-01T00:15:28.664Z,9.10
2019-03-01T00:18:39.797Z,9.19
2019-03-01T00:21:38.239Z,9.13
2019-03-01T00:24:39.844Z,9.11
2019-03-01T00:28:04.402Z,9.13
2019-03-01T00:31:14.640Z,9.14
2019-03-01T00:33:58.389Z,9.14
2019-03-01T00:37:02.017Z,9.20
2019-03-01T00:39:48.815Z,9.23
2019-03-01T00:43:11.124Z,9.25
2019-03-01T00:45:41.726Z,9.25
2019-03-01T00:48:10.658Z,9.26
2019-03-01T00:50:39.507Z,9.23
2019-03-01T00:53:08.480Z,9.28
2019-03-01T00:55:37.438Z,9.24
2019-03-01T00:58:06.421Z,9.28
2019-03-01T01:00:39.827Z,9.25
2019-03-01T01:03:08.733Z,9.30
2019-03-01T01:05:37.722Z,9.28
2019-03-01T01:08:06.651Z,9.24
2019-03-01T01:10:35.605Z,9.23
2019-03-01T01:13:04.557Z,9.28
2019-03-01T01:15:33.350Z,9.26
2019-03-01T01:18:02.297Z,9.25
2019-03-01T01:20:31.246Z,9.24
2019-03-01T01:23:00.080Z,9.24
2019-03-01T01:25:29.002Z,9.22
2019-03-01T01:27:57.900Z,9.26
2019-03-01T01:30:26.896Z,9.19
2019-03-01T01:32:55.723Z,9.18
2019-03-01T01:35:27.674Z,9.17
2019-03-01T01:37:56.629Z,9.18
2019-03-01T01:40:25.422Z,9.23
2019-03-01T01:42:54.332Z,9.15
2019-03-01T01:45:23.248Z,9.13
2019-03-01T01:47:52.194Z,9.16
2019-03-01T01:50:21.061Z,9.20
2019-03-01T01:52:49.882Z,9.13
2019-03-01T01:55:18.886Z,9.14
2019-03-01T01:57:47.889Z,9.16
2019-03-01T02:00:17.163Z,9.16
2019-03-01T02:02:46.250Z,9.20
2019-03-01T02:05:15.271Z,9.17
2019-03-01T02:07:44.147Z,9.09
2019-03-01T02:10:13.301Z,9.12
2019-03-01T02:12:42.308Z,9.19
2019-03-01T02:15:12.710Z,9.09
2019-03-01T02:17:41.589Z,9.02
2019-03-01T02:20:10.982Z,9.06
2019-03-01T02:22:39.940Z,9.06
2019-03-01T02:25:10.085Z,8.97
2019-03-01T02:27:39.065Z,8.92
2019-03-01T02:30:16.672Z,8.88
2019-03-01T02:32:49.806Z,8.85
2019-03-01T02:35:21.026Z,8.83
2019-03-01T02:37:49.888Z,8.81
2019-03-01T02:40:19.360Z,8.75
2019-03-01T02:42:48.261Z,8.72
2019-03-01T02:45:18.824Z,8.65
2019-03-01T02:47:47.812Z,8.60
2019-03-01T02:50:17.523Z,8.58
2019-03-01T02:52:46.791Z,8.57
2019-03-01T02:55:16.938Z,8.51
2019-03-01T02:57:46.030Z,8.45
2019-03-01T03:00:20.067Z,8.46
2019-03-01T03:02:48.991Z,8.43
2019-03-01T03:05:17.942Z,8.44
2019-03-01T03:07:51.735Z,8.37
2019-03-01T03:10:20.724Z,8.36
2019-03-01T03:12:50.645Z,8.35
2019-03-01T03:15:25.213Z,8.42
2019-03-01T03:17:54.023Z,8.33
2019-03-01T03:20:22.937Z,8.28
2019-03-01T03:22:51.791Z,8.30
2019-03-01T03:25:20.590Z,8.30
2019-03-01T03:27:49.443Z,8.24
2019-03-01T03:30:18.773Z,8.23
2019-03-01T03:32:47.632Z,8.22
2019-03-01T03:35:16.502Z,8.18
2019-03-01T03:37:45.316Z,8.16
2019-03-01T03:40:14.466Z,8.16
2019-03-01T03:42:43.445Z,8.17
2019-03-01T03:45:12.800Z,8.13
2019-03-01T03:47:41.779Z,8.19
2019-03-01T03:50:11.772Z,8.14
2019-03-01T03:52:40.650Z,8.13
2019-03-01T03:55:11.611Z,8.13
2019-03-01T03:57:40.757Z,8.14
2019-03-01T04:00:13.490Z,8.18
2019-03-01T04:02:42.583Z,8.17
2019-03-01T04:05:11.796Z,8.13
2019-03-01T04:07:40.774Z,8.12
2019-03-01T04:10:10.073Z,8.12
2019-03-01T04:12:38.960Z,8.08
2019-03-01T04:15:09.394Z,8.09
2019-03-01T04:17:38.284Z,8.10
2019-03-01T04:20:09.122Z,8.09
2019-03-01T04:22:38.112Z,8.05
2019-03-01T04:25:07.544Z,8.07
2019-03-01T04:27:36.519Z,8.08
2019-03-01T04:30:07.496Z,8.07
2019-03-01T04:32:36.334Z,8.05
2019-03-01T04:35:05.714Z,8.09
2019-03-01T04:37:34.489Z,8.06
2019-03-01T04:40:03.504Z,8.08
2019-03-01T04:42:32.373Z,8.02
2019-03-01T04:45:01.314Z,8.02
2019-03-01T04:47:30.213Z,8.04
2019-03-01T04:49:59.200Z,8.03
2019-03-01T04:52:30.101Z,8.08
2019-03-01T04:54:59.050Z,8.06
2019-03-01T04:57:27.998Z,8.00
2019-03-01T04:59:57.102Z,8.04
2019-03-01T05:02:26.228Z,7.99
2019-03-01T05:04:55.172Z,7.97
2019-03-01T05:07:24.083Z,7.95
2019-03-01T05:09:53.030Z,7.93
2019-03-01T05:12:21.975Z,7.89
2019-03-01T05:14:50.963Z,7.90
2019-03-01T05:17:19.888Z,7.96
2019-03-01T05:19:48.714Z,7.93
2019-03-01T05:22:17.741Z,8.01
2019-03-01T05:24:46.642Z,8.01
2019-03-01T05:27:15.630Z,8.02
2019-03-01T05:29:44.503Z,8.00
2019-03-01T05:32:13.477Z,7.96
2019-03-01T05:34:42.264Z,8.05
2019-03-01T05:37:11.233Z,7.94
2019-03-01T05:39:40.057Z,7.89
2019-03-01T05:42:09.167Z,7.87
2019-03-01T05:44:38.049Z,7.86
2019-03-01T05:47:06.933Z,7.86
2019-03-01T05:49:35.813Z,7.88
2019-03-01T05:52:04.813Z,7.89
2019-03-01T05:54:35.027Z,7.92
2019-03-01T05:57:03.965Z,7.98
2019-03-01T05:59:32.801Z,7.98
2019-03-01T06:02:45.704Z,7.98
2019-03-01T06:05:25.016Z,7.97
2019-03-01T06:08:47.411Z,8.02
2019-03-01T06:11:38.220Z,7.96
2019-03-01T06:15:00.375Z,7.99
2019-03-01T06:18:19.559Z,7.93
2019-03-01T06:21:18.654Z,7.98
2019-03-01T06:24:19.370Z,8.05
2019-03-01T06:27:16.497Z,8.02
2019-03-01T06:30:24.016Z,8.01
2019-03-01T06:33:30.495Z,8.07
2019-03-01T06:36:33.387Z,8.10
2019-03-01T06:40:13.146Z,8.10
2019-03-01T06:42:55.725Z,8.18
2019-03-01T06:45:49.329Z,8.13
2019-03-01T06:48:55.632Z,8.15
2019-03-01T06:51:29.109Z,8.15
2019-03-01T06:53:58.312Z,8.16
2019-03-01T06:56:27.347Z,8.40
2019-03-01T06:58:59.197Z,8.25
2019-03-01T07:01:33.982Z,8.21
2019-03-01T07:04:21.915Z,8.26
2019-03-01T07:06:50.851Z,8.28
2019-03-01T07:09:19.793Z,8.35
2019-03-01T07:11:48.754Z,8.36
2019-03-01T07:14:17.892Z,8.35
2019-03-01T07:16:46.761Z,8.43
2019-03-01T07:19:15.630Z,8.50
2019-03-01T07:21:44.487Z,8.48
2019-03-01T07:24:13.397Z,8.47
2019-03-01T07:26:42.321Z,8.49
2019-03-01T07:29:11.252Z,8.53
2019-03-01T07:31:40.216Z,8.56
2019-03-01T07:34:09.420Z,8.58
2019-03-01T07:36:38.351Z,8.65
2019-03-01T07:39:09.694Z,8.70
2019-03-01T07:41:38.633Z,8.79
2019-03-01T07:44:07.656Z,8.90
2019-03-01T07:46:36.697Z,9.00
2019-03-01T07:49:05.661Z,9.06
2019-03-01T07:51:35.961Z,9.06
2019-03-01T07:54:05.047Z,9.06
2019-03-01T07:56:36.903Z,9.02
2019-03-01T07:59:04.761Z,9.05
2019-03-01T08:01:33.771Z,9.06
2019-03-01T08:04:02.679Z,9.05
2019-03-01T08:06:31.683Z,9.21
2019-03-01T08:09:01.067Z,9.41
2019-03-01T08:11:31.799Z,9.51
2019-03-01T08:14:00.617Z,9.54
2019-03-01T08:16:29.462Z,9.66
2019-03-01T08:18:58.576Z,9.73
2019-03-01T08:21:27.610Z,9.73
2019-03-01T08:23:56.509Z,9.77
2019-03-01T08:26:25.423Z,9.74
2019-03-01T08:28:54.718Z,9.77
2019-03-01T08:31:25.007Z,9.78
2019-03-01T08:33:54.154Z,9.85
2019-03-01T08:36:23.116Z,9.76
2019-03-01T08:38:52.006Z,9.78
2019-03-01T08:41:21.576Z,9.82
2019-03-01T08:43:52.130Z,9.91
2019-03-01T08:46:21.127Z,9.96
2019-03-01T08:48:50.045Z,10.02
2019-03-01T08:51:18.975Z,10.08
2019-03-01T08:53:48.314Z,10.11
2019-03-01T08:56:25.816Z,10.03
2019-03-01T08:58:50.192Z,9.85
2019-03-01T09:01:19.431Z,9.92
2019-03-01T09:03:55.508Z,9.73
2019-03-01T09:06:24.468Z,9.75
2019-03-01T09:08:53.439Z,9.94
2019-03-01T09:11:22.334Z,10.07
2019-03-01T09:13:51.160Z,10.19
2019-03-01T09:16:20.154Z,10.22
2019-03-01T09:18:49.926Z,10.33
2019-03-01T09:21:19.607Z,10.55
2019-03-01T09:23:52.198Z,10.71
2019-03-01T09:26:20.693Z,10.97
2019-03-01T09:28:50.623Z,10.73
2019-03-01T09:31:19.678Z,10.79
2019-03-01T09:33:48.679Z,10.80
2019-03-01T09:36:37.128Z,10.70
2019-03-01T09:39:09.217Z,10.83
2019-03-01T09:41:40.498Z,10.81
2019-03-01T09:44:08.847Z,10.73
2019-03-01T09:46:37.710Z,10.89
2019-03-01T09:49:06.668Z,10.89
2019-03-01T09:51:35.699Z,10.80
2019-03-01T09:54:06.519Z,10.79
2019-03-01T09:56:35.676Z,10.73
2019-03-01T09:59:04.697Z,10.79
2019-03-01T10:01:34.545Z,10.69
2019-03-01T10:04:03.456Z,10.84
2019-03-01T10:06:38.032Z,10.93
2019-03-01T10:09:04.504Z,10.91
2019-03-01T10:11:33.479Z,10.84
2019-03-01T10:14:02.435Z,10.83
2019-03-01T10:16:31.357Z,10.72
2019-03-01T10:19:01.807Z,10.63
2019-03-01T10:21:30.690Z,10.80
2019-03-01T10:23:59.726Z,11.01
2019-03-01T10:26:28.487Z,11.05
2019-03-01T10:28:57.543Z,11.16
2019-03-01T10:31:26.521Z,11.32
2019-03-01T10:33:55.375Z,11.53
2019-03-01T10:36:24.339Z,11.59
2019-03-01T10:38:53.224Z,11.61
2019-03-01T10:41:22.130Z,11.47
2019-03-01T10:43:51.016Z,11.50
2019-03-01T10:46:20.031Z,11.36
2019-03-01T10:48:48.872Z,11.22
2019-03-01T10:51:17.732Z,11.32
2019-03-01T10:53:47.921Z,11.27
2019-03-01T10:56:17.039Z,11.50
2019-03-01T10:58:46.059Z,11.30
2019-03-01T11:01:14.963Z,11.35
2019-03-01T11:03:43.779Z,11.20
2019-03-01T11:06:12.777Z,10.90
2019-03-01T11:08:41.733Z,11.37
2019-03-01T11:13:45.043Z,11.08
2019-03-01T11:16:13.873Z,10.86
2019-03-01T11:18:42.892Z,10.87
2019-03-01T11:21:11.917Z,10.92
2019-03-01T11:23:40.821Z,10.87
2019-03-01T11:26:09.785Z,10.59
2019-03-01T11:28:38.670Z,10.54
2019-03-01T11:31:07.624Z,10.52
2019-03-01T11:33:36.538Z,10.75
2019-03-01T11:36:05.595Z,10.87
2019-03-01T11:38:34.536Z,11.07
2019-03-01T11:41:03.755Z,11.06
2019-03-01T11:43:32.822Z,11.05
2019-03-01T11:46:01.655Z,11.11
2019-03-01T11:48:30.563Z,11.45
2019-03-01T11:51:01.847Z,11.36
2019-03-01T11:53:30.896Z,11.28
2019-03-01T11:55:59.713Z,11.24
2019-03-01T11:58:28.651Z,11.04
2019-03-01T12:00:57.647Z,10.89
2019-03-01T12:03:27.016Z,10.87
2019-03-01T12:05:56.007Z,11.10
2019-03-01T12:08:24.901Z,11.24
2019-03-01T12:10:53.904Z,11.01
2019-03-01T12:13:22.895Z,10.90
2019-03-01T12:15:52.638Z,11.08
2019-03-01T12:18:21.496Z,11.06
2019-03-01T12:20:50.281Z,10.99
2019-03-01T12:23:19.147Z,10.99
2019-03-01T12:25:48.039Z,10.84
2019-03-01T12:28:16.965Z,10.67
2019-03-01T12:30:45.787Z,10.60
2019-03-01T12:33:17.319Z,10.53
2019-03-01T12:35:46.243Z,10.62
2019-03-01T12:38:15.205Z,10.75
2019-03-01T12:40:44.258Z,10.71
2019-03-01T12:43:13.182Z,10.83
2019-03-01T12:45:42.214Z,11.07
2019-03-01T12:48:11.146Z,11.01
2019-03-01T12:50:40.197Z,11.15
2019-03-01T12:53:09.069Z,11.37
2019-03-01T12:55:37.975Z,11.34
2019-03-01T12:58:07.017Z,11.38
2019-03-01T13:00:36.138Z,11.20
2019-03-01T13:03:08.895Z,11.19
2019-03-01T13:05:35.678Z,11.18
2019-03-01T13:08:05.063Z,11.05
2019-03-01T13:10:36.880Z,10.94
2019-03-01T13:13:08.071Z,10.83
2019-03-01T13:15:35.626Z,10.73
2019-03-01T13:18:04.680Z,10.73
2019-03-01T13:20:36.729Z,10.76
2019-03-01T13:23:06.039Z,10.79
2019-03-01T13:25:35.230Z,10.65
2019-03-01T13:28:04.295Z,10.65
2019-03-01T13:30:35.830Z,10.51
2019-03-01T13:33:04.012Z,10.48
2019-03-01T13:35:32.961Z,10.22
2019-03-01T13:38:03.894Z,10.34
2019-03-01T13:40:33.030Z,10.28
2019-03-01T13:43:02.067Z,10.13
2019-03-01T13:45:31.007Z,10.25
2019-03-01T13:48:00.010Z,10.28
2019-03-01T13:50:28.895Z,10.02
2019-03-01T13:52:57.793Z,9.94
2019-03-01T13:55:27.689Z,9.81
2019-03-01T13:57:56.806Z,9.88
2019-03-01T14:00:27.255Z,9.75
2019-03-01T14:02:56.221Z,9.75
2019-03-01T14:05:25.231Z,10.03
2019-03-01T14:07:56.765Z,10.19
2019-03-01T14:10:24.998Z,10.32
2019-03-01T14:12:53.925Z,10.15
2019-03-01T14:15:22.876Z,9.85
2019-03-01T14:17:51.810Z,9.99
2019-03-01T14:20:21.258Z,9.99
2019-03-01T14:22:50.436Z,10.20
2019-03-01T14:25:19.420Z,10.13
2019-03-01T14:27:48.632Z,10.28
2019-03-01T14:30:19.648Z,10.24
2019-03-01T14:32:48.727Z,10.07
2019-03-01T14:35:20.470Z,9.95
2019-03-01T14:37:54.236Z,9.73
2019-03-01T14:40:22.391Z,9.85
2019-03-01T14:42:49.881Z,9.89
2019-03-01T14:45:20.936Z,9.87
2019-03-01T14:47:49.942Z,9.91
2019-03-01T14:50:20.367Z,9.94
2019-03-01T14:52:49.362Z,9.88
2019-03-01T14:55:23.079Z,9.80
2019-03-01T14:57:59.049Z,9.90
2019-03-01T15:00:49.652Z,9.87
2019-03-01T15:03:30.836Z,9.82
2019-03-01T15:06:00.035Z,9.73
2019-03-01T15:08:29.192Z,9.66
2019-03-01T15:10:59.805Z,9.63
2019-03-01T15:13:31.370Z,9.69
2019-03-01T15:16:01.051Z,9.58
2019-03-01T15:18:32.320Z,9.55
2019-03-01T15:21:02.533Z,9.61
2019-03-01T15:23:31.897Z,9.61
2019-03-01T15:26:00.978Z,9.61
2019-03-01T15:28:30.032Z,9.42
2019-03-01T15:30:58.967Z,9.30
2019-03-01T15:33:27.909Z,9.23
2019-03-01T15:35:56.776Z,9.34
2019-03-01T15:38:27.791Z,9.25
2019-03-01T15:40:57.723Z,9.09
2019-03-01T15:43:29.912Z,9.07
2019-03-01T15:45:59.316Z,9.00
2019-03-01T15:48:30.142Z,8.86
2019-03-01T15:51:02.412Z,8.83
2019-03-01T15:53:30.620Z,8.80
2019-03-01T15:56:02.104Z,8.86
2019-03-01T15:58:33.281Z,8.95
2019-03-01T16:01:01.343Z,8.90
2019-03-01T16:03:30.265Z,8.95
2019-03-01T16:05:59.125Z,8.98
2019-03-01T16:08:27.980Z,8.78
2019-03-01T16:10:56.860Z,8.78
2019-03-01T16:13:25.866Z,8.75
2019-03-01T16:15:54.886Z,8.84
2019-03-01T16:18:24.003Z,8.90
2019-03-01T16:20:53.052Z,8.93
2019-03-01T16:23:21.923Z,8.94
2019-03-01T16:25:53.090Z,8.96
2019-03-01T16:28:22.071Z,8.90
2019-03-01T16:30:53.215Z,8.82
2019-03-01T16:33:22.424Z,8.81
2019-03-01T16:35:52.599Z,8.81
2019-03-01T16:38:21.502Z,8.92
2019-03-01T16:40:50.506Z,8.87
2019-03-01T16:43:19.403Z,8.94
2019-03-01T16:45:48.200Z,8.88
2019-03-01T16:48:17.785Z,8.91
2019-03-01T16:50:46.921Z,8.93
2019-03-01T16:53:16.003Z,8.92
2019-03-01T16:55:45.036Z,8.86
2019-03-01T16:58:14.038Z,8.68
2019-03-01T17:00:43.004Z,8.68
2019-03-01T17:03:16.762Z,8.69
2019-03-01T17:05:42.771Z,8.69
2019-03-01T17:08:12.588Z,8.63
2019-03-01T17:10:41.635Z,8.64
2019-03-01T17:13:10.637Z,8.63
2019-03-01T17:15:39.593Z,8.67
2019-03-01T17:18:12.208Z,8.67
2019-03-01T17:20:39.430Z,8.71
2019-03-01T17:23:08.326Z,8.67
2019-03-01T17:25:37.294Z,8.73
2019-03-01T17:28:06.213Z,8.68
2019-03-01T17:30:35.269Z,8.67
2019-03-01T17:33:04.226Z,8.66
2019-03-01T17:35:33.166Z,8.53
2019-03-01T17:38:04.096Z,8.48
2019-03-01T17:40:33.521Z,8.52
2019-03-01T17:43:02.692Z,8.60
2019-03-01T17:45:31.657Z,8.52
2019-03-01T17:48:00.586Z,8.53
2019-03-01T17:50:29.583Z,8.57
2019-03-01T17:52:58.560Z,8.55
2019-03-01T17:55:27.571Z,8.48
2019-03-01T17:57:56.560Z,8.51
2019-03-01T18:00:31.176Z,8.49
2019-03-01T18:03:00.180Z,8.52
2019-03-01T18:05:29.482Z,8.56
2019-03-01T18:07:59.980Z,8.52
2019-03-01T18:10:32.154Z,8.49
2019-03-01T18:12:59.945Z,8.53
2019-03-01T18:15:29.067Z,8.64
2019-03-01T18:17:57.998Z,8.61
2019-03-01T18:20:26.824Z,8.64
2019-03-01T18:22:55.710Z,8.65
2019-03-01T18:25:26.385Z,8.68
2019-03-01T18:27:55.359Z,8.67
2019-03-01T18:30:24.362Z,8.66
2019-03-01T18:32:53.366Z,8.59
2019-03-01T18:35:22.200Z,8.51
2019-03-01T18:37:54.794Z,8.48
2019-03-01T18:40:21.957Z,8.46
2019-03-01T18:42:50.940Z,8.51
2019-03-01T18:45:19.952Z,8.43
2019-03-01T18:47:48.991Z,8.41
2019-03-01T18:50:20.930Z,8.40
2019-03-01T18:52:53.189Z,8.35
2019-03-01T18:55:20.713Z,8.29
2019-03-01T18:57:49.592Z,8.27
2019-03-01T19:00:21.415Z,8.26
2019-03-01T19:02:50.372Z,8.25
2019-03-01T19:05:19.367Z,8.24
2019-03-01T19:07:48.169Z,8.14
2019-03-01T19:10:17.343Z,8.14
2019-03-01T19:12:48.603Z,8.08
2019-03-01T19:15:17.015Z,8.07
2019-03-01T19:17:46.277Z,8.07
2019-03-01T19:20:17.730Z,8.03
2019-03-01T19:22:46.676Z,8.01
2019-03-01T19:25:16.103Z,8.01
2019-03-01T19:27:47.193Z,8.01
2019-03-01T19:30:17.642Z,7.91
2019-03-01T19:32:46.609Z,7.86
2019-03-01T19:35:15.629Z,7.85
2019-03-01T19:37:45.843Z,7.83
2019-03-01T19:40:16.849Z,7.70
2019-03-01T19:42:46.047Z,7.63
2019-03-01T19:45:16.353Z,7.56
2019-03-01T19:47:46.454Z,7.59
2019-03-01T19:50:17.231Z,7.56
2019-03-01T19:52:46.958Z,7.48
2019-03-01T19:55:16.978Z,7.40
2019-03-01T19:57:45.918Z,7.44
2019-03-01T20:00:17.165Z,7.40
2019-03-01T20:02:46.364Z,7.37
2019-03-01T20:05:16.817Z,7.50
2019-03-01T20:07:45.793Z,7.38
2019-03-01T20:10:16.064Z,7.36
2019-03-01T20:12:47.561Z,7.32
2019-03-01T20:15:20.437Z,7.36
2019-03-01T20:17:49.465Z,7.27
2019-03-01T20:20:19.390Z,7.23
2019-03-01T20:22:50.595Z,7.19
2019-03-01T20:25:19.341Z,7.10
2019-03-01T20:27:48.331Z,7.05
2019-03-01T20:30:28.481Z,7.08
2019-03-01T20:32:52.820Z,7.09
2019-03-01T20:35:21.846Z,7.06
2019-03-01T20:37:51.104Z,7.06
2019-03-01T20:40:22.780Z,6.98
2019-03-01T20:42:50.771Z,6.98
2019-03-01T20:45:22.200Z,6.91
2019-03-01T20:47:53.533Z,6.96
2019-03-01T20:50:21.930Z,6.90
2019-03-01T20:52:50.938Z,6.89
2019-03-01T20:55:19.893Z,6.83
2019-03-01T20:57:48.930Z,6.83
2019-03-01T21:00:18.367Z,6.88
2019-03-01T21:02:50.227Z,6.96
2019-03-01T21:05:21.035Z,6.99
2019-03-01T21:07:53.777Z,6.89
2019-03-01T21:10:21.805Z,6.97
2019-03-01T21:12:50.737Z,6.98
2019-03-01T21:15:21.360Z,7.05
2019-03-01T21:17:53.093Z,7.14
2019-03-01T21:20:21.421Z,7.04
2019-03-01T21:22:50.421Z,7.08
2019-03-01T21:25:19.645Z,7.06
2019-03-01T21:27:48.729Z,7.07
2019-03-01T21:30:24.107Z,7.02
2019-03-01T21:32:53.610Z,7.10
2019-03-01T21:35:22.594Z,7.15
2019-03-01T21:37:51.773Z,7.18
2019-03-01T21:40:20.719Z,7.13
2019-03-01T21:42:52.994Z,7.00
2019-03-01T21:45:21.472Z,7.08
2019-03-01T21:47:51.399Z,7.04
2019-03-01T21:50:20.423Z,7.02
2019-03-01T21:52:49.346Z,6.98
2019-03-01T21:55:18.313Z,6.90
2019-03-01T21:57:47.302Z,7.00
2019-03-01T22:00:18.410Z,6.90
2019-03-01T22:02:48.819Z,6.88
2019-03-01T22:05:18.517Z,6.86
2019-03-01T22:07:47.571Z,6.90
2019-03-01T22:10:16.755Z,6.87
2019-03-01T22:12:45.683Z,6.87
2019-03-01T22:15:21.546Z,6.84
2019-03-01T22:17:50.870Z,6.86
2019-03-01T22:20:19.803Z,6.91
2019-03-01T22:22:48.828Z,6.90
2019-03-01T22:25:18.428Z,6.92
2019-03-01T22:27:47.356Z,6.92
2019-03-01T22:30:23.056Z,6.88
2019-03-01T22:32:52.666Z,6.86
2019-03-01T22:35:22.250Z,6.92
2019-03-01T22:37:51.155Z,6.46
2019-03-01T22:40:27.623Z,6.73
2019-03-01T22:43:03.891Z,6.81
2019-03-01T22:45:41.753Z,6.75
2019-03-01T22:48:14.997Z,6.74
2019-03-01T22:50:43.887Z,6.65
2019-03-01T22:53:12.815Z,6.59
2019-03-01T22:55:41.923Z,6.48
2019-03-01T22:58:10.769Z,6.38
2019-03-01T23:01:03.904Z,6.48
2019-03-01T23:03:32.906Z,6.49
2019-03-01T23:06:02.180Z,6.42
2019-03-01T23:08:31.691Z,6.46
2019-03-01T23:11:01.919Z,6.41
2019-03-01T23:13:30.805Z,6.40
2019-03-01T23:15:59.810Z,6.44
2019-03-01T23:18:28.807Z,6.50
2019-03-01T23:21:00.944Z,6.53
2019-03-01T23:23:28.306Z,6.53
2019-03-01T23:25:57.289Z,6.51
2019-03-01T23:28:26.135Z,6.50
2019-03-01T23:30:54.962Z,6.48
2019-03-01T23:33:23.947Z,6.58
2019-03-01T23:35:53.857Z,6.58
2019-03-01T23:38:22.887Z,6.52
2019-03-01T23:40:52.270Z,6.52
2019-03-01T23:43:21.187Z,6.59
2019-03-01T23:45:53.327Z,6.54
2019-03-01T23:48:20.605Z,6.59
2019-03-01T23:50:49.636Z,6.62
2019-03-01T23:53:18.675Z,6.55
2019-03-01T23:55:50.995Z,6.53
2019-03-01T23:58:18.323Z,6.49
